Time;durP1;ratioP1;P1;durP2;ratioP2;P2;SDS_P1;SDS_P2;PMS_P1;PMS_P2;Temp;Humidity;BMP_temperature;BMP_pressure;BME280_temperature;BME280_humidity;BME280_pressure;Samples;Min_cycle;Max_cycle;Signal;HPM_P1;HPM_P2
2022/06/15 00:01:05;;;;;;;10.73;10.03;;;17.10;10.70;;;;;;4931546;28;20510;-70
2022/06/15 00:03:32;;;;;;;11.23;10.23;;;17.10;12.00;;;;;;4931425;29;20799;-69
2022/06/15 00:06:10;;;;;;;9.87;9.30;;;17.00;12.50;;;;;;4931580;28;20429;-68
2022/06/15 00:08:36;;;;;;;10.07;9.10;;;17.00;12.90;;;;;;4997094;28;20455;-67
2022/06/15 00:11:18;;;;;;;8.93;8.43;;;16.70;14.00;;;;;;4931605;29;20423;-67
2022/06/15 00:13:44;;;;;;;8.87;8.43;;;16.60;14.20;;;;;;4931582;29;20457;-68
2022/06/15 00:16:10;;;;;;;9.67;8.97;;;16.60;14.20;;;;;;4934114;29;20532;-68
2022/06/15 00:18:36;;;;;;;8.80;8.40;;;16.50;14.10;;;;;;4934612;29;20581;-68
2022/06/15 00:21:03;;;;;;;9.70;9.10;;;16.50;14.10;;;;;;4934775;29;20462;-67
2022/06/15 00:23:30;;;;;;;9.20;8.70;;;16.40;14.90;;;;;;4934960;29;20836;-68
2022/06/15 00:25:55;;;;;;;8.30;7.60;;;16.10;15.70;;;;;;4935081;29;20446;-67
2022/06/15 00:28:22;;;;;;;9.33;7.90;;;16.10;15.80;;;;;;4934318;29;20421;-69
2022/06/15 00:30:51;;;;;;;8.20;7.80;;;16.00;16.20;;;;;;4934786;29;20414;-68
2022/06/15 00:33:19;;;;;;;9.20;8.37;;;15.90;16.20;;;;;;4939207;29;20425;-69
2022/06/15 00:36:00;;;;;;;8.70;8.20;;;16.00;15.90;;;;;;4943673;29;20454;-70
2022/06/15 00:38:29;;;;;;;8.37;7.77;;;16.10;15.10;;;;;;4944346;29;20452;-68
2022/06/15 00:40:55;;;;;;;9.13;8.53;;;16.20;14.80;;;;;;4938316;29;20457;-68
2022/06/15 00:43:37;;;;;;;8.10;7.60;;;16.10;15.20;;;;;;4935173;29;20814;-68
2022/06/15 00:46:33;;;;;;;9.03;8.33;;;16.10;15.20;;;;;;4934473;29;20544;-68
2022/06/15 00:49:13;;;;;;;8.03;7.43;;;16.00;15.20;;;;;;4934093;29;20458;-67
2022/06/15 00:51:39;;;;;;;8.33;7.67;;;15.90;15.60;;;;;;4934341;28;20436;-67
2022/06/15 00:54:07;;;;;;;7.03;6.63;;;15.80;15.90;;;;;;4934273;29;20422;-67
2022/06/15 00:56:36;;;;;;;7.10;6.70;;;15.70;16.70;;;;;;4934185;29;20463;-67
2022/06/15 00:59:13;;;;;;;7.70;7.17;;;15.60;17.20;;;;;;4934002;29;20449;-67
2022/06/15 01:01:40;;;;;;;5.70;5.40;;;15.40;17.80;;;;;;4934177;29;20571;-68
2022/06/15 01:04:06;;;;;;;6.97;6.37;;;15.20;18.40;;;;;;4934298;29;20451;-68
2022/06/15 01:06:56;;;;;;;7.50;6.90;;;15.30;18.50;;;;;;4934109;29;20437;-68
2022/06/15 01:09:25;;;;;;;7.00;6.30;;;15.40;17.90;;;;;;4933859;29;20418;-67
2022/06/15 01:12:02;;;;;;;7.40;6.87;;;15.20;18.50;;;;;;4934167;29;20423;-66
2022/06/15 01:14:46;;;;;;;6.77;6.17;;;15.20;18.30;;;;;;4934059;29;21137;-66
2022/06/15 01:17:27;;;;;;;6.33;5.83;;;15.20;18.20;;;;;;4934010;29;20439;-67
2022/06/15 01:20:36;;;;;;;6.00;5.60;;;15.30;18.40;;;;;;4934257;28;21041;-68
2022/06/15 01:23:26;;;;;;;7.40;6.80;;;15.30;18.20;;;;;;4934336;29;20453;-67
2022/06/15 01:26:21;;;;;;;6.70;6.03;;;15.40;18.10;;;;;;4933346;29;20461;-67
2022/06/15 01:29:32;;;;;;;6.47;6.07;;;15.20;18.00;;;;;;4933801;29;20501;-67
2022/06/15 01:32:12;;;;;;;6.80;6.20;;;15.10;18.60;;;;;;4911271;29;20436;-68
2022/06/15 01:34:50;;;;;;;6.03;5.53;;;15.00;19.40;;;;;;4933815;29;20415;-68
2022/06/15 01:37:31;;;;;;;7.00;5.90;;;14.80;20.50;;;;;;4933546;29;20454;-67
2022/06/15 01:40:02;;;;;;;6.90;5.50;;;14.80;20.50;;;;;;4933441;29;20531;-67
2022/06/15 01:42:37;;;;;;;5.30;4.70;;;14.90;20.50;;;;;;4933913;29;20416;-68
2022/06/15 01:45:14;;;;;;;4.77;4.47;;;14.70;20.50;;;;;;4934472;29;20789;-68
2022/06/15 01:47:42;;;;;;;6.10;5.60;;;14.80;20.70;;;;;;4934276;29;20786;-68
2022/06/15 01:50:18;;;;;;;7.40;6.07;;;14.80;20.00;;;;;;4933991;29;20423;-67
2022/06/15 01:52:52;;;;;;;6.07;5.20;;;14.80;21.00;;;;;;4934386;29;20478;-68
2022/06/15 01:55:47;;;;;;;4.67;4.37;;;14.70;20.40;;;;;;4934300;29;20420;-67
2022/06/15 01:58:14;;;;;;;7.20;6.43;;;14.80;20.10;;;;;;4931203;28;20467;-66
2022/06/15 02:00:42;;;;;;;5.73;5.20;;;14.80;19.90;;;;;;4934231;29;20472;-68
2022/06/15 02:03:11;;;;;;;5.70;5.20;;;14.80;20.10;;;;;;4934077;29;20418;-69
2022/06/15 02:05:46;;;;;;;6.03;5.43;;;14.80;20.40;;;;;;4934040;29;20522;-67
2022/06/15 02:08:18;;;;;;;6.57;5.00;;;14.70;20.50;;;;;;4933757;29;20836;-68
2022/06/15 02:11:06;;;;;;;6.17;5.60;;;14.70;20.90;;;;;;4933856;29;20453;-69
2022/06/15 02:14:00;;;;;;;6.10;5.50;;;14.60;21.80;;;;;;4933158;29;20421;-67
2022/06/15 02:16:35;;;;;;;5.57;5.17;;;14.60;21.10;;;;;;4911642;29;20545;-67
2022/06/15 02:19:04;;;;;;;5.57;5.17;;;14.60;20.90;;;;;;4932915;29;20425;-67
2022/06/15 02:21:30;;;;;;;6.20;5.60;;;14.70;20.50;;;;;;4932913;29;20481;-67
2022/06/15 02:24:00;;;;;;;8.03;5.07;;;14.70;20.40;;;;;;4933319;29;20419;-67
2022/06/15 02:26:31;;;;;;;5.23;4.83;;;14.70;20.50;;;;;;4998489;28;20215;-67
2022/06/15 02:29:01;;;;;;;5.20;4.70;;;14.60;20.60;;;;;;4932887;29;20418;-67
2022/06/15 02:31:27;;;;;;;9.13;5.03;;;14.40;21.70;;;;;;4932917;29;20414;-68
2022/06/15 02:33:56;;;;;;;5.57;5.17;;;14.40;21.50;;;;;;4932719;29;20426;-67
2022/06/15 02:36:23;;;;;;;5.93;4.33;;;14.20;22.60;;;;;;4932359;29;21240;-67
2022/06/15 02:38:51;;;;;;;4.90;4.33;;;14.00;24.10;;;;;;4932156;29;20431;-67
2022/06/15 02:41:19;;;;;;;6.37;5.00;;;14.00;24.10;;;;;;4932610;29;20458;-67
2022/06/15 02:43:47;;;;;;;9.03;5.53;;;14.10;24.20;;;;;;4932640;29;20764;-67
2022/06/15 02:46:14;;;;;;;5.63;5.13;;;14.10;24.10;;;;;;4932473;29;20435;-68
2022/06/15 02:48:40;;;;;;;7.83;4.93;;;13.90;25.30;;;;;;4932678;29;20509;-67
2022/06/15 02:51:45;;;;;;;7.73;4.40;;;13.80;25.20;;;;;;4942401;29;20426;-67
2022/06/15 02:54:25;;;;;;;6.47;4.80;;;13.80;25.60;;;;;;5009095;28;20920;-67
2022/06/15 02:56:51;;;;;;;6.37;4.70;;;13.70;26.30;;;;;;4939458;29;20492;-68
2022/06/15 02:59:18;;;;;;;6.73;5.10;;;13.60;26.40;;;;;;4937860;29;20818;-67
2022/06/15 03:01:44;;;;;;;8.37;4.93;;;13.60;26.90;;;;;;4932871;29;20474;-67
2022/06/15 03:04:09;;;;;;;5.93;3.90;;;13.50;26.90;;;;;;4932357;29;20472;-67
2022/06/15 03:06:35;;;;;;;5.07;4.60;;;13.50;26.80;;;;;;4932161;29;20198;-67
2022/06/15 03:09:01;;;;;;;6.10;4.30;;;13.40;27.60;;;;;;4932093;29;20187;-67
2022/06/15 03:11:27;;;;;;;5.83;5.13;;;13.50;27.20;;;;;;4932138;29;20185;-68
2022/06/15 03:13:53;;;;;;;6.63;4.60;;;13.50;27.10;;;;;;4932070;29;20237;-68
2022/06/15 03:16:20;;;;;;;5.20;4.70;;;13.50;26.90;;;;;;4932008;29;20530;-67
2022/06/15 03:18:45;;;;;;;6.93;4.70;;;13.60;27.60;;;;;;4931732;29;20510;-69
2022/06/15 03:21:12;;;;;;;6.50;5.90;;;13.70;27.50;;;;;;4932036;29;20557;-67
2022/06/15 03:23:37;;;;;;;6.97;6.07;;;13.70;27.80;;;;;;4932203;29;20590;-68
2022/06/15 03:26:04;;;;;;;7.97;6.57;;;13.80;28.50;;;;;;4932417;29;20436;-68
2022/06/15 03:28:30;;;;;;;6.47;5.87;;;13.70;28.60;;;;;;4932300;29;20232;-68
2022/06/15 03:30:56;;;;;;;5.27;4.77;;;13.60;29.20;;;;;;4932224;29;20426;-68
2022/06/15 03:33:21;;;;;;;7.17;5.77;;;13.50;28.70;;;;;;4932148;29;20422;-69
2022/06/15 03:35:48;;;;;;;7.70;4.77;;;13.60;29.20;;;;;;4932562;29;21003;-67
2022/06/15 03:38:13;;;;;;;6.90;6.20;;;13.60;28.80;;;;;;4932490;29;20185;-67
2022/06/15 03:40:46;;;;;;;9.57;7.10;;;13.30;30.00;;;;;;4932003;29;20474;-67
2022/06/15 03:43:12;;;;;;;8.77;5.70;;;13.10;31.60;;;;;;4931959;29;20178;-67
2022/06/15 03:45:38;;;;;;;8.30;6.27;;;13.10;31.30;;;;;;4931943;29;20442;-67
2022/06/15 03:48:03;;;;;;;8.00;5.80;;;13.20;30.70;;;;;;4931867;29;20506;-67
2022/06/15 03:50:31;;;;;;;7.27;5.40;;;13.10;31.90;;;;;;4933528;29;21009;-68
2022/06/15 03:52:57;;;;;;;6.23;5.50;;;13.10;31.60;;;;;;4935089;29;20261;-67
2022/06/15 03:55:24;;;;;;;8.97;4.73;;;13.10;31.60;;;;;;4934785;29;20425;-67
2022/06/15 03:57:49;;;;;;;7.10;5.40;;;13.20;31.20;;;;;;4935097;29;20421;-67
2022/06/15 04:00:19;;;;;;;6.83;5.60;;;13.30;30.80;;;;;;4934911;29;20527;-67
2022/06/15 04:02:45;;;;;;;7.17;5.70;;;13.40;30.40;;;;;;4934935;29;20483;-68
2022/06/15 04:05:33;;;;;;;8.60;5.73;;;13.50;29.70;;;;;;4934762;29;20424;-67
2022/06/15 04:10:42;;;;;;;5.20;4.70;;;13.70;28.90;;;;;;4935365;29;20421;-67
2022/06/15 04:13:08;;;;;;;6.40;5.80;;;13.80;28.50;;;;;;4935382;29;20415;-67
2022/06/15 04:15:33;;;;;;;6.77;5.23;;;13.90;28.20;;;;;;5001256;28;20199;-68
2022/06/15 04:17:59;;;;;;;6.47;4.40;;;14.00;27.80;;;;;;4934766;29;20187;-67
2022/06/15 04:20:32;;;;;;;6.67;4.93;;;14.00;27.50;;;;;;4934966;29;20209;-68
2022/06/15 04:23:02;;;;;;;10.50;6.00;;;13.90;27.40;;;;;;4934730;29;20182;-68
2022/06/15 04:25:29;;;;;;;5.30;4.47;;;14.00;27.30;;;;;;4934688;29;20895;-68
2022/06/15 04:27:56;;;;;;;4.50;4.10;;;14.10;27.10;;;;;;4934551;29;20453;-68
2022/06/15 04:30:22;;;;;;;5.53;4.13;;;14.20;26.60;;;;;;4934715;29;20430;-68
2022/06/15 04:32:48;;;;;;;8.50;4.80;;;14.20;26.10;;;;;;4934502;29;20423;-68
2022/06/15 04:35:14;;;;;;;5.07;4.60;;;14.40;25.60;;;;;;4934450;29;20421;-68
2022/06/15 04:37:39;;;;;;;11.40;5.73;;;14.50;25.70;;;;;;4934589;29;20551;-68
2022/06/15 04:40:06;;;;;;;5.97;4.60;;;14.60;25.50;;;;;;4934354;29;20870;-68
2022/06/15 04:42:32;;;;;;;9.33;5.87;;;14.70;25.00;;;;;;4934447;29;20219;-68
2022/06/15 04:44:58;;;;;;;5.80;4.47;;;14.60;25.40;;;;;;4934400;29;20430;-67
2022/06/15 04:47:23;;;;;;;6.67;4.63;;;14.70;25.40;;;;;;4934247;29;20436;-67
2022/06/15 04:49:49;;;;;;;5.07;4.60;;;14.90;24.80;;;;;;4934316;29;20281;-67
2022/06/15 04:52:15;;;;;;;5.37;4.87;;;15.20;25.90;;;;;;4934448;29;20261;-67
2022/06/15 04:54:40;;;;;;;8.73;6.03;;;16.60;24.70;;;;;;4934102;29;20171;-67
2022/06/15 04:57:06;;;;;;;9.97;9.20;;;18.40;21.50;;;;;;4933993;29;20654;-66
2022/06/15 04:59:31;;;;;;;10.80;10.20;;;20.30;16.80;;;;;;4999547;28;20210;-66
2022/06/15 05:01:58;;;;;;;13.00;12.30;;;21.90;13.70;;;;;;4933838;29;20297;-68
2022/06/15 05:04:25;;;;;;;13.70;12.87;;;23.50;11.20;;;;;;4934036;28;20174;-68
2022/06/15 05:06:51;;;;;;;15.63;14.30;;;25.00;9.20;;;;;;4934043;28;20431;-67
2022/06/15 05:09:17;;;;;;;15.50;14.60;;;26.40;7.00;;;;;;4933881;28;20415;-68
2022/06/15 05:11:42;;;;;;;15.97;15.00;;;27.80;3.80;;;;;;4933871;29;20462;-67
2022/06/15 05:14:08;;;;;;;16.33;15.33;;;28.80;2.90;;;;;;4934007;28;20225;-68
2022/06/15 05:16:34;;;;;;;16.00;15.20;;;29.50;1.00;;;;;;4933889;29;20625;-68
2022/06/15 05:19:01;;;;;;;16.37;15.57;;;30.40;1.00;;;;;;4933628;29;20731;-68
2022/06/15 05:21:27;;;;;;;17.30;15.47;;;31.00;1.00;;;;;;4934165;28;20492;-68
2022/06/15 05:23:53;;;;;;;15.53;14.83;;;31.50;1.00;;;;;;4934058;28;20411;-68
2022/06/15 05:26:18;;;;;;;15.43;14.50;;;31.50;1.00;;;;;;4933852;28;20438;-68
2022/06/15 05:28:45;;;;;;;17.13;16.27;;;32.10;1.00;;;;;;4933559;29;20642;-68
2022/06/15 05:31:20;;;;;;;17.33;16.63;;;32.30;1.00;;;;;;4933760;28;20252;-68
2022/06/15 05:33:46;;;;;;;17.70;16.90;;;32.70;1.00;;;;;;4933797;28;20412;-68
2022/06/15 05:36:15;;;;;;;17.17;16.37;;;32.40;1.00;;;;;;4933567;28;20458;-68
2022/06/15 05:38:41;;;;;;;18.43;17.40;;;32.40;1.00;;;;;;4933513;28;20460;-68
2022/06/15 05:41:09;;;;;;;18.17;17.37;;;32.50;1.00;;;;;;4933376;29;20462;-68
2022/06/15 05:43:38;;;;;;;16.87;16.07;;;33.10;1.00;;;;;;4933580;28;20183;-68
2022/06/15 05:46:26;;;;;;;19.17;18.00;;;32.00;1.00;;;;;;4933446;28;20422;-68
2022/06/15 05:48:52;;;;;;;17.83;16.73;;;32.50;1.00;;;;;;4933140;29;20763;-68
2022/06/15 05:51:17;;;;;;;17.60;16.43;;;33.90;1.00;;;;;;4933359;28;20423;-68
2022/06/15 05:53:43;;;;;;;18.00;16.70;;;35.00;1.00;;;;;;4933190;29;20433;-68
2022/06/15 05:56:08;;;;;;;16.63;15.83;;;36.00;1.00;;;;;;4933015;29;20302;-68
2022/06/15 05:58:34;;;;;;;20.47;18.43;;;36.70;1.00;;;;;;4933024;29;20233;-68
2022/06/15 06:01:27;;;;;;;17.60;16.57;;;37.10;1.00;;;;;;4932993;29;20246;-68
2022/06/15 06:03:53;;;;;;;17.43;16.53;;;37.30;1.00;;;;;;4933351;28;20648;-68
2022/06/15 06:06:19;;;;;;;16.67;15.87;;;37.60;1.00;;;;;;4933058;29;20438;-68
2022/06/15 06:08:44;;;;;;;16.27;15.57;;;37.80;1.00;;;;;;4932757;29;20193;-68
2022/06/15 06:11:10;;;;;;;18.03;16.97;;;37.80;1.00;;;;;;4932862;29;20240;-68
2022/06/15 06:13:35;;;;;;;16.90;16.00;;;38.30;1.00;;;;;;4932472;29;20265;-68
2022/06/15 06:16:01;;;;;;;18.10;17.30;;;38.80;1.00;;;;;;4932950;29;20199;-69
2022/06/15 06:18:27;;;;;;;17.53;16.73;;;39.20;1.00;;;;;;4932913;29;20175;-69
2022/06/15 06:20:53;;;;;;;18.83;17.93;;;39.70;1.00;;;;;;4932830;29;20210;-68
2022/06/15 06:23:19;;;;;;;17.77;16.97;;;40.10;1.00;;;;;;4932909;28;20572;-68
2022/06/15 06:25:47;;;;;;;17.90;17.10;;;40.10;1.00;;;;;;4932647;29;20439;-68
2022/06/15 06:28:34;;;;;;;16.97;16.27;;;40.10;1.00;;;;;;4932885;28;20178;-69
2022/06/15 06:31:03;;;;;;;18.47;17.67;;;39.70;1.00;;;;;;4932810;29;20437;-69
2022/06/15 06:33:30;;;;;;;18.10;17.10;;;38.90;1.00;;;;;;4933006;29;21062;-68
2022/06/15 06:35:58;;;;;;;17.87;17.10;;;39.40;1.00;;;;;;4932410;29;20537;-69
2022/06/15 06:38:24;;;;;;;19.33;18.03;;;39.80;1.00;;;;;;4932470;29;20841;-69
2022/06/15 06:40:51;;;;;;;18.07;17.17;;;40.10;1.00;;;;;;4932374;29;20525;-69
2022/06/15 06:43:16;;;;;;;17.53;16.80;;;40.30;1.00;;;;;;4932498;29;20179;-69
2022/06/15 06:45:42;;;;;;;16.73;15.83;;;40.20;1.00;;;;;;4932799;28;20446;-69
2022/06/15 06:48:08;;;;;;;17.83;16.90;;;39.90;1.00;;;;;;4932294;29;20179;-69
2022/06/15 06:50:35;;;;;;;18.20;17.30;;;40.20;1.00;;;;;;4932269;29;20187;-69
2022/06/15 06:53:02;;;;;;;33.23;19.70;;;39.70;1.00;;;;;;4932504;28;20175;-69
2022/06/15 06:55:28;;;;;;;17.87;16.83;;;39.20;1.00;;;;;;4932338;28;20442;-69
2022/06/15 06:57:55;;;;;;;16.50;15.73;;;38.60;1.00;;;;;;4932187;29;20429;-69
2022/06/15 07:00:21;;;;;;;17.50;16.50;;;37.80;1.00;;;;;;4932151;28;20462;-69
2022/06/15 07:02:46;;;;;;;16.57;15.87;;;37.40;1.00;;;;;;4932206;29;20811;-69
2022/06/15 07:05:12;;;;;;;17.50;16.63;;;36.60;1.00;;;;;;4932179;29;20418;-68
2022/06/15 07:07:37;;;;;;;18.10;17.20;;;34.10;1.00;;;;;;4932264;29;20265;-68
2022/06/15 07:10:03;;;;;;;16.23;15.60;;;33.50;1.00;;;;;;4931967;29;20182;-68
2022/06/15 07:12:29;;;;;;;33.07;21.63;;;33.50;1.00;;;;;;4932006;28;20186;-69
2022/06/15 07:14:54;;;;;;;17.00;16.20;;;33.70;1.00;;;;;;4932047;29;20510;-69
2022/06/15 07:17:20;;;;;;;16.60;15.90;;;33.60;1.00;;;;;;4931965;29;20332;-68
2022/06/15 07:19:47;;;;;;;15.70;15.10;;;32.80;1.00;;;;;;4931656;29;20186;-68
2022/06/15 07:22:13;;;;;;;17.13;16.17;;;33.10;1.00;;;;;;4932048;28;20657;-68
2022/06/15 07:24:38;;;;;;;16.47;15.73;;;34.10;1.00;;;;;;4930855;29;20411;-68
2022/06/15 07:27:04;;;;;;;17.40;16.60;;;33.60;1.00;;;;;;4931887;29;20205;-68
2022/06/15 07:29:31;;;;;;;18.17;17.13;;;34.90;1.00;;;;;;4931615;29;20179;-69
2022/06/15 07:31:57;;;;;;;16.83;16.03;;;36.00;1.00;;;;;;4931848;29;20210;-68
2022/06/15 07:34:23;;;;;;;16.30;15.60;;;34.50;1.00;;;;;;4931806;29;20556;-68
2022/06/15 07:36:50;;;;;;;16.80;16.13;;;33.80;1.00;;;;;;4931835;28;20222;-68
2022/06/15 07:39:18;;;;;;;16.67;15.97;;;34.10;1.00;;;;;;4931558;28;20423;-68
2022/06/15 07:41:45;;;;;;;16.67;16.00;;;34.60;1.00;;;;;;4931658;29;20568;-68
2022/06/15 07:44:12;;;;;;;16.60;15.90;;;35.40;1.00;;;;;;4931501;29;20425;-68
2022/06/15 07:46:37;;;;;;;16.60;15.80;;;35.90;1.00;;;;;;4931553;28;20433;-68
2022/06/15 07:51:59;;;;;;;16.53;15.63;;;37.50;1.00;;;;;;4931735;29;20232;-69
2022/06/15 07:54:26;;;;;;;17.03;16.33;;;37.90;1.00;;;;;;4931637;28;20419;-68
2022/06/15 07:56:55;;;;;;;17.10;16.40;;;38.20;1.00;;;;;;4931752;29;20941;-69
2022/06/15 07:59:22;;;;;;;16.67;15.83;;;38.70;1.00;;;;;;4931477;29;20435;-68
2022/06/15 08:01:48;;;;;;;16.33;15.63;;;38.50;1.00;;;;;;4930897;28;20462;-68
2022/06/15 08:04:15;;;;;;;16.80;16.10;;;38.70;1.00;;;;;;4931697;28;20425;-68
2022/06/15 08:06:43;;;;;;;17.00;16.30;;;36.40;1.00;;;;;;4931218;29;20519;-68
2022/06/15 08:09:10;;;;;;;16.07;15.37;;;36.60;1.00;;;;;;4930887;29;20426;-68
2022/06/15 08:11:37;;;;;;;16.40;15.70;;;37.20;1.00;;;;;;4931357;28;20517;-68
2022/06/15 08:14:04;;;;;;;16.33;15.63;;;37.70;1.00;;;;;;4932047;29;20789;-68
2022/06/15 08:16:30;;;;;;;17.37;16.57;;;37.10;1.00;;;;;;4931333;28;20443;-68
2022/06/15 08:18:59;;;;;;;17.10;16.00;;;36.50;1.00;;;;;;4931102;28;20452;-68
2022/06/15 08:21:30;;;;;;;15.47;14.77;;;36.40;1.00;;;;;;4931136;29;20246;-68
2022/06/15 08:23:59;;;;;;;15.90;15.20;;;36.90;1.00;;;;;;4931399;28;20414;-69
2022/06/15 08:26:30;;;;;;;16.57;15.87;;;36.70;1.00;;;;;;4930966;29;20446;-68
2022/06/15 08:28:58;;;;;;;18.50;17.00;;;34.00;1.00;;;;;;4931070;28;20791;-68
2022/06/15 08:31:24;;;;;;;16.53;15.80;;;34.30;1.00;;;;;;4931309;28;20517;-69
2022/06/15 08:33:49;;;;;;;16.77;15.87;;;33.20;1.00;;;;;;4931223;29;20506;-69
2022/06/15 08:36:15;;;;;;;16.47;15.77;;;33.50;1.00;;;;;;4932321;29;20226;-71
2022/06/15 08:38:41;;;;;;;16.40;15.50;;;32.00;1.00;;;;;;4934712;28;20182;-68
2022/06/15 08:41:27;;;;;;;15.87;15.13;;;30.60;1.00;;;;;;4934309;29;20886;-69
2022/06/15 08:43:58;;;;;;;16.10;15.40;;;31.50;1.00;;;;;;4934523;28;20791;-69
2022/06/15 08:46:59;;;;;;;16.07;15.33;;;32.40;1.00;;;;;;4934432;29;20431;-69
2022/06/15 08:49:42;;;;;;;15.80;15.10;;;32.50;1.00;;;;;;4935876;28;20437;-69
2022/06/15 08:52:26;;;;;;;16.07;15.33;;;32.90;1.00;;;;;;5000255;28;20429;-69
2022/06/15 08:55:00;;;;;;;17.17;16.00;;;32.90;1.00;;;;;;4934230;29;20778;-69
2022/06/15 08:57:43;;;;;;;15.87;15.17;;;32.80;1.00;;;;;;4934202;29;20430;-69
2022/06/15 09:00:15;;;;;;;15.50;14.80;;;31.80;1.00;;;;;;4934050;29;21004;-69
2022/06/15 09:02:47;;;;;;;16.00;15.20;;;31.70;1.00;;;;;;4934249;28;20847;-69
2022/06/15 09:05:42;;;;;;;15.43;14.83;;;31.40;1.00;;;;;;4934026;29;20411;-69
2022/06/15 09:08:45;;;;;;;16.00;15.20;;;30.90;1.00;;;;;;4933670;29;20476;-69
2022/06/15 09:11:29;;;;;;;16.17;15.47;;;30.00;1.00;;;;;;4933871;29;20464;-68
2022/06/15 09:14:10;;;;;;;15.90;15.20;;;28.80;1.00;;;;;;4933778;29;20420;-69
2022/06/15 09:16:40;;;;;;;17.87;16.70;;;28.50;1.00;;;;;;4933868;29;20486;-69
2022/06/15 09:19:28;;;;;;;16.57;15.57;;;27.50;1.00;;;;;;4933859;28;20454;-67
2022/06/15 09:22:01;;;;;;;16.13;15.40;;;27.10;1.00;;;;;;4934392;28;20461;-69
2022/06/15 09:24:49;;;;;;;16.83;16.03;;;26.90;1.00;;;;;;4934015;28;20878;-69
2022/06/15 09:27:35;;;;;;;17.70;16.40;;;26.80;1.10;;;;;;4934093;29;20659;-68
2022/06/15 09:30:19;;;;;;;16.07;15.37;;;26.70;1.30;;;;;;4934136;28;20411;-68
2022/06/15 09:32:55;;;;;;;15.53;14.83;;;26.60;1.30;;;;;;4933966;29;20472;-69
2022/06/15 09:35:40;;;;;;;16.23;15.07;;;26.60;1.60;;;;;;4933529;28;20415;-69
2022/06/15 09:38:10;;;;;;;16.53;15.73;;;26.60;2.50;;;;;;5024018;22;20486;-67
2022/06/15 09:40:41;;;;;;;14.90;14.30;;;26.70;1.90;;;;;;5010848;28;20927;-68
2022/06/15 09:43:16;;;;;;;16.47;15.50;;;26.40;2.10;;;;;;5010688;28;20414;-67
2022/06/15 09:45:56;;;;;;;16.37;14.93;;;26.50;1.80;;;;;;5010832;28;20446;-68
2022/06/15 09:48:47;;;;;;;15.70;14.70;;;26.60;1.70;;;;;;5057116;28;20946;-68
2022/06/15 09:51:33;;;;;;;15.00;14.23;;;26.70;1.70;;;;;;5058222;28;20412;-68
2022/06/15 09:54:20;;;;;;;16.00;15.10;;;26.70;2.10;;;;;;4991240;28;20775;-68
2022/06/15 09:56:47;;;;;;;15.70;14.90;;;26.70;1.40;;;;;;4991055;28;20431;-68
2022/06/15 09:59:16;;;;;;;15.73;14.67;;;26.70;1.40;;;;;;4990836;28;20411;-70
2022/06/15 10:01:45;;;;;;;15.10;14.40;;;26.40;1.30;;;;;;4991573;28;20561;-68
2022/06/15 10:04:24;;;;;;;15.13;14.53;;;26.50;1.90;;;;;;4990691;28;20473;-68
2022/06/15 10:07:13;;;;;;;14.90;14.30;;;26.60;2.40;;;;;;4990808;28;20470;-68
2022/06/15 10:09:46;;;;;;;14.60;13.90;;;26.70;2.10;;;;;;4990557;28;20466;-68
2022/06/15 10:12:55;;;;;;;15.10;14.40;;;26.80;1.00;;;;;;4990774;28;20958;-68
2022/06/15 10:15:23;;;;;;;15.30;14.50;;;26.90;1.30;;;;;;4990650;28;20408;-68
2022/06/15 10:17:54;;;;;;;13.90;13.30;;;26.70;1.00;;;;;;4990903;28;21021;-68
2022/06/15 10:20:27;;;;;;;15.30;14.63;;;26.60;1.00;;;;;;4990360;28;20455;-68
2022/06/15 10:22:55;;;;;;;14.70;13.90;;;26.50;1.00;;;;;;4990459;28;20408;-68
2022/06/15 10:25:22;;;;;;;15.73;15.03;;;26.40;1.00;;;;;;4991395;28;20774;-68
2022/06/15 10:27:48;;;;;;;15.73;14.93;;;26.30;1.00;;;;;;5058027;28;20444;-67
2022/06/15 10:30:17;;;;;;;14.73;14.20;;;26.30;1.00;;;;;;5057432;28;20481;-68
2022/06/15 10:33:12;;;;;;;14.20;13.50;;;26.40;1.00;;;;;;4990297;28;20181;-68
2022/06/15 10:35:38;;;;;;;15.70;14.60;;;26.50;1.00;;;;;;4990373;28;20431;-68
2022/06/15 10:38:10;;;;;;;15.40;14.70;;;26.60;1.00;;;;;;5057221;28;20467;-67
2022/06/15 10:40:39;;;;;;;15.00;14.40;;;26.70;1.00;;;;;;5057586;28;20196;-68
2022/06/15 10:43:20;;;;;;;14.60;14.00;;;26.80;1.00;;;;;;4990534;28;20412;-68
2022/06/15 10:45:57;;;;;;;14.60;14.00;;;26.80;1.00;;;;;;4990699;28;20513;-68
2022/06/15 10:48:43;;;;;;;13.90;13.20;;;26.70;1.00;;;;;;4990042;28;20476;-67
2022/06/15 10:51:36;;;;;;;15.03;14.43;;;26.90;1.00;;;;;;5057660;28;20448;-69
2022/06/15 10:54:17;;;;;;;14.33;13.73;;;27.00;1.00;;;;;;5048928;28;20832;-69
2022/06/15 11:02:31;;;;;;;14.23;13.70;;;27.20;1.00;;;;;;4990371;28;20937;-69
2022/06/15 11:05:11;;;;;;;14.67;14.07;;;27.10;1.00;;;;;;4990054;28;20404;-69
2022/06/15 11:07:55;;;;;;;15.00;14.40;;;27.10;1.00;;;;;;4989892;28;20435;-69
2022/06/15 11:10:32;;;;;;;15.40;14.70;;;27.10;1.00;;;;;;4989894;28;20415;-69
2022/06/15 11:13:02;;;;;;;14.30;13.80;;;27.20;1.00;;;;;;4989911;28;20465;-68
2022/06/15 11:18:58;;;;;;;14.70;13.90;;;27.20;1.00;;;;;;4989885;28;20423;-68
2022/06/15 11:21:29;;;;;;;14.90;14.30;;;27.20;1.00;;;;;;4989846;28;20486;-69
2022/06/15 11:24:02;;;;;;;14.60;14.00;;;27.30;1.00;;;;;;4990059;28;20473;-69
2022/06/15 11:29:48;;;;;;;15.93;14.63;;;27.40;1.00;;;;;;4989521;28;20448;-68
2022/06/15 11:32:30;;;;;;;14.17;13.67;;;27.50;1.00;;;;;;4989714;28;20412;-69
2022/06/15 11:34:59;;;;;;;14.17;13.47;;;27.60;1.00;;;;;;4989462;28;20419;-69
2022/06/15 11:37:31;;;;;;;15.23;14.53;;;27.70;1.00;;;;;;5056449;28;20459;-69
2022/06/15 11:40:07;;;;;;;15.47;14.87;;;27.80;1.00;;;;;;5056546;28;20416;-69
2022/06/15 11:42:32;;;;;;;14.30;13.70;;;27.90;1.00;;;;;;4989522;28;20426;-69
2022/06/15 11:44:58;;;;;;;14.97;14.37;;;27.90;1.00;;;;;;4989353;28;20416;-69
2022/06/15 11:47:49;;;;;;;15.97;15.23;;;27.90;1.00;;;;;;4989212;28;20204;-69
2022/06/15 11:50:41;;;;;;;15.07;14.37;;;27.90;1.00;;;;;;4989175;28;20271;-68
2022/06/15 11:53:19;;;;;;;15.67;14.90;;;27.70;1.00;;;;;;4989426;28;20998;-69
2022/06/15 11:55:52;;;;;;;16.03;15.43;;;27.70;1.00;;;;;;4989558;28;20822;-69
2022/06/15 11:58:55;;;;;;;15.67;14.70;;;27.80;1.00;;;;;;4989142;28;20907;-69
2022/06/15 12:01:26;;;;;;;15.30;14.70;;;27.90;1.00;;;;;;4989473;28;20919;-69
2022/06/15 12:04:10;;;;;;;15.87;15.17;;;28.10;1.00;;;;;;4989333;28;20424;-67
2022/06/15 12:06:57;;;;;;;15.50;14.87;;;28.10;1.00;;;;;;4989204;28;20428;-68
2022/06/15 12:09:59;;;;;;;15.00;14.40;;;28.20;1.00;;;;;;4988966;28;20902;-69
2022/06/15 12:12:37;;;;;;;15.37;14.70;;;28.30;1.00;;;;;;4992647;28;20446;-69
2022/06/15 12:15:20;;;;;;;14.43;13.83;;;28.40;1.00;;;;;;4992780;28;20407;-69
2022/06/15 12:18:00;;;;;;;15.30;14.50;;;28.50;1.00;;;;;;4992430;28;20447;-69
2022/06/15 12:21:10;;;;;;;15.33;14.53;;;28.60;1.00;;;;;;4992715;28;20459;-68
2022/06/15 12:23:59;;;;;;;15.63;14.87;;;28.70;1.00;;;;;;4996965;28;20805;-69
2022/06/15 12:26:33;;;;;;;13.93;13.43;;;28.70;1.00;;;;;;4992254;28;20471;-69
2022/06/15 12:29:29;;;;;;;14.47;13.87;;;28.70;1.00;;;;;;4992132;28;20449;-69
2022/06/15 12:32:31;;;;;;;14.63;13.97;;;28.70;1.00;;;;;;5059888;28;20915;-69
2022/06/15 12:35:32;;;;;;;15.30;14.70;;;28.80;1.00;;;;;;4992704;28;20997;-69
2022/06/15 12:38:11;;;;;;;14.83;14.23;;;28.80;1.00;;;;;;5001498;28;20554;-69
2022/06/15 12:40:42;;;;;;;15.03;14.50;;;28.80;1.00;;;;;;4992106;28;20489;-69
2022/06/15 12:43:14;;;;;;;15.10;14.50;;;28.90;1.00;;;;;;4992026;28;20407;-69
2022/06/15 12:45:47;;;;;;;14.13;13.63;;;28.90;1.00;;;;;;4992053;28;20415;-69
2022/06/15 12:48:23;;;;;;;14.60;14.00;;;28.90;1.00;;;;;;4991898;28;20442;-69
2022/06/15 12:51:10;;;;;;;15.37;14.70;;;29.00;1.00;;;;;;4992243;28;20907;-69
2022/06/15 12:53:53;;;;;;;14.80;14.20;;;29.00;1.00;;;;;;4992082;28;20448;-69
2022/06/15 12:56:51;;;;;;;15.03;14.40;;;29.00;1.00;;;;;;4991929;28;20442;-68
2022/06/15 12:59:41;;;;;;;15.60;14.50;;;29.10;1.00;;;;;;4991630;28;20411;-68
2022/06/15 13:02:33;;;;;;;15.30;14.60;;;29.10;1.00;;;;;;4991832;28;20467;-69
2022/06/15 13:05:19;;;;;;;14.90;14.30;;;29.10;1.00;;;;;;4991964;28;20450;-69
2022/06/15 13:08:16;;;;;;;15.60;14.90;;;29.00;1.00;;;;;;4991930;28;20427;-69
2022/06/15 13:10:53;;;;;;;15.47;14.77;;;29.10;1.00;;;;;;4992459;28;20820;-69
2022/06/15 13:13:28;;;;;;;15.33;14.63;;;29.10;1.00;;;;;;4992062;28;20424;-69
2022/06/15 13:16:08;;;;;;;15.37;14.50;;;29.20;1.00;;;;;;4991696;28;20510;-69
2022/06/15 13:18:53;;;;;;;16.20;15.50;;;29.20;1.00;;;;;;5059275;28;20950;-70
2022/06/15 13:21:29;;;;;;;14.67;14.07;;;29.30;1.00;;;;;;4991435;28;20814;-68
2022/06/15 13:24:07;;;;;;;14.97;14.37;;;29.30;1.00;;;;;;4990873;28;20465;-69
2022/06/15 13:26:41;;;;;;;14.80;14.17;;;29.40;1.00;;;;;;4991503;28;20439;-69
2022/06/15 13:29:10;;;;;;;15.40;14.80;;;29.40;1.00;;;;;;4991347;28;20410;-68